createdAt,value
2018-07-26T00:01:35.948Z,41.30
2018-07-26T00:32:08.790Z,37.20
2018-07-26T00:41:57.287Z,35.70
2018-07-26T01:06:10.276Z,43.90
2018-07-26T01:08:51.983Z,43.60
2018-07-26T01:11:26.725Z,32.80
2018-07-26T01:17:31.449Z,27.85
2018-07-26T01:20:17.689Z,40.77
2018-07-26T01:22:52.274Z,38.20
2018-07-26T01:25:27.529Z,57.43
2018-07-26T01:30:45.818Z,38.50
2018-07-26T01:33:22.797Z,38.93
2018-07-26T01:35:56.100Z,38.60
2018-07-26T01:38:30.184Z,36.43
2018-07-26T01:41:02.647Z,37.60
2018-07-26T01:43:55.366Z,34.47
2018-07-26T01:46:28.876Z,39.63
2018-07-26T13:55:16.878Z,38.00
2018-07-26T13:57:51.784Z,27.03
2018-07-26T14:00:30.371Z,44.93
2018-07-26T14:03:10.800Z,35.33
2018-07-26T14:05:44.030Z,34.37
2018-07-26T15:28:13.156Z,51.20
2018-07-26T15:30:56.128Z,31.30
2018-07-26T15:33:34.153Z,40.07
2018-07-26T15:36:08.594Z,25.57
2018-07-26T15:39:02.037Z,26.57
2018-07-26T15:41:34.799Z,31.03
2018-07-26T15:44:15.895Z,25.17
2018-07-26T15:46:58.579Z,48.30
2018-07-26T15:49:57.431Z,27.57
2018-07-26T15:52:41.572Z,36.00
2018-07-26T15:55:15.288Z,31.37
2018-07-26T16:14:37.643Z,36.20
2018-07-26T17:12:40.770Z,36.80
2018-07-26T17:25:27.284Z,30.68
2018-07-26T17:38:35.561Z,47.20
2018-07-26T17:41:14.938Z,29.32
2018-07-26T17:43:49.377Z,23.70
2018-07-26T17:50:22.257Z,23.65
2018-07-26T18:01:21.804Z,30.30
2018-07-26T18:03:57.099Z,21.62
2018-07-26T18:06:37.897Z,26.85
2018-07-26T18:09:13.886Z,39.58
2018-07-26T18:11:51.632Z,31.65
2018-07-26T18:14:49.976Z,32.30
2018-07-26T18:20:34.677Z,39.15
2018-07-26T18:23:15.385Z,36.40
2018-07-26T18:25:51.709Z,31.82
2018-07-26T18:36:35.093Z,30.80
2018-07-26T18:39:26.300Z,34.48
2018-07-26T18:42:05.026Z,32.00
2018-07-26T18:44:59.174Z,30.37
2018-07-26T18:50:56.871Z,21.27
2018-07-26T18:53:33.407Z,29.67
2018-07-26T18:56:07.617Z,39.65
2018-07-26T18:58:43.469Z,29.18
2018-07-26T19:01:18.014Z,33.83
2018-07-26T19:03:52.294Z,49.33
2018-07-26T19:06:28.909Z,27.85
2018-07-26T19:09:03.193Z,21.93
2018-07-26T19:11:47.248Z,31.87
2018-07-26T19:14:20.471Z,35.30
2018-07-26T19:16:55.928Z,33.63
2018-07-26T19:19:39.403Z,36.38
2018-07-26T19:22:18.724Z,34.05
2018-07-26T19:24:56.820Z,34.03
2018-07-26T19:27:47.141Z,36.63
2018-07-26T19:30:25.503Z,26.73
2018-07-26T19:33:10.898Z,45.80
2018-07-26T19:35:52.719Z,40.37
2018-07-26T19:38:26.166Z,37.63
2018-07-26T19:41:02.271Z,40.13
2018-07-26T19:43:34.654Z,45.90
2018-07-26T19:48:46.592Z,46.77
2018-07-26T19:51:22.802Z,41.97
2018-07-26T19:53:57.381Z,46.40
2018-07-26T19:56:32.339Z,34.57
2018-07-26T19:59:09.909Z,30.77
2018-07-26T20:04:20.529Z,33.60
2018-07-26T20:09:58.867Z,25.37
2018-07-26T20:26:50.207Z,50.63
2018-07-26T20:29:27.021Z,34.87
2018-07-26T20:32:02.036Z,30.00
2018-07-26T20:34:37.711Z,33.27
2018-07-26T20:37:15.139Z,25.03
2018-07-26T20:39:48.020Z,43.13
2018-07-26T20:42:25.196Z,28.83
2018-07-26T20:45:00.708Z,44.00
2018-07-26T20:50:18.642Z,44.50
2018-07-26T20:55:31.010Z,47.60
2018-07-26T20:58:08.970Z,46.97
2018-07-26T21:00:44.612Z,47.43
2018-07-26T21:03:22.201Z,50.80
2018-07-26T21:06:04.360Z,41.63
2018-07-26T21:09:21.347Z,50.13
2018-07-26T21:12:05.363Z,69.77
2018-07-26T21:20:49.287Z,56.10
2018-07-26T21:23:26.191Z,54.87
2018-07-26T21:26:06.847Z,46.33
2018-07-26T21:28:47.606Z,50.37
2018-07-26T21:31:23.611Z,41.60
2018-07-26T21:33:57.229Z,46.77
2018-07-26T21:36:47.088Z,40.33
2018-07-26T21:39:25.325Z,33.20
2018-07-26T21:42:07.915Z,37.77
2018-07-26T21:44:50.637Z,38.13
2018-07-26T21:47:36.412Z,40.33
2018-07-26T21:50:15.856Z,38.53
2018-07-26T21:52:55.259Z,32.80
2018-07-26T21:55:29.916Z,30.53
2018-07-26T21:58:02.988Z,31.10
2018-07-26T22:00:45.711Z,40.90
2018-07-26T22:03:19.708Z,52.77
2018-07-26T22:05:59.712Z,70.30
2018-07-26T22:08:32.061Z,62.40
2018-07-26T22:11:06.166Z,56.30
2018-07-26T22:13:42.371Z,49.73
2018-07-26T22:16:14.646Z,51.33
2018-07-26T22:18:47.306Z,40.97
2018-07-26T22:21:20.816Z,41.13
2018-07-26T22:23:58.714Z,39.03
2018-07-26T22:26:34.046Z,46.20
2018-07-26T22:29:07.299Z,42.90
2018-07-26T22:31:41.638Z,41.40
2018-07-26T22:34:17.141Z,39.95
2018-07-26T22:36:55.976Z,49.80
2018-07-26T22:39:30.944Z,54.35
2018-07-26T22:42:03.088Z,47.40
2018-07-26T22:44:56.276Z,47.85
2018-07-26T22:47:29.469Z,39.90
2018-07-26T22:50:06.039Z,35.90
2018-07-26T22:52:39.537Z,59.00
2018-07-26T22:55:17.663Z,82.25
2018-07-26T22:57:51.241Z,70.90
2018-07-26T23:00:25.828Z,64.03
2018-07-26T23:02:58.153Z,65.80
2018-07-26T23:05:33.105Z,48.83
2018-07-26T23:08:06.010Z,42.43
2018-07-26T23:10:39.158Z,29.63
2018-07-26T23:13:13.684Z,30.83
2018-07-26T23:15:47.466Z,23.40
2018-07-26T23:18:21.107Z,28.37
2018-07-26T23:20:57.491Z,33.27
2018-07-26T23:26:11.202Z,45.57
2018-07-26T23:28:48.537Z,44.00
2018-07-26T23:34:57.191Z,42.90
2018-07-26T23:37:40.175Z,38.63
2018-07-26T23:40:33.249Z,49.37
2018-07-26T23:56:30.109Z,53.60
2018-07-26T23:59:02.528Z,58.67
